createdAt,value
2019-04-20T00:00:44.347Z,80.29
2019-04-20T00:01:29.252Z,80.15
2019-04-20T00:02:13.742Z,79.96
2019-04-20T00:02:51.125Z,79.89
2019-04-20T00:03:30.914Z,79.79
2019-04-20T00:04:05.392Z,79.68
2019-04-20T00:04:45.221Z,79.90
2019-04-20T00:05:23.304Z,79.90
2019-04-20T00:06:01.504Z,79.52
2019-04-20T00:06:46.260Z,79.46
2019-04-20T00:07:24.585Z,79.65
2019-04-20T00:08:02.236Z,79.65
2019-04-20T00:08:42.668Z,79.33
2019-04-20T00:09:24.681Z,79.45
2019-04-20T00:10:09.608Z,79.11
2019-04-20T00:10:47.369Z,79.02
2019-04-20T00:11:26.300Z,79.00
2019-04-20T00:12:07.070Z,78.95
2019-04-20T00:12:55.639Z,78.84
2019-04-20T00:13:32.107Z,78.84
2019-04-20T00:14:05.609Z,78.82
2019-04-20T00:14:41.303Z,78.77
2019-04-20T00:15:19.731Z,78.80
2019-04-20T00:15:57.864Z,78.78
2019-04-20T00:16:36.144Z,78.76
2019-04-20T00:17:14.118Z,78.75
2019-04-20T00:17:58.970Z,78.70
2019-04-20T00:18:43.055Z,78.66
2019-04-20T00:19:22.524Z,78.63
2019-04-20T00:19:57.797Z,78.54
2019-04-20T00:20:38.380Z,78.48
2019-04-20T00:21:33.902Z,78.36
2019-04-20T00:22:24.617Z,78.10
2019-04-20T00:23:07.871Z,77.96
2019-04-20T00:23:50.269Z,77.87
2019-04-20T00:25:00.471Z,77.82
2019-04-20T00:26:02.864Z,77.68
2019-04-20T00:27:08.542Z,77.58
2019-04-20T00:27:38.931Z,77.57
2019-04-20T00:28:24.157Z,77.54
2019-04-20T00:29:07.105Z,77.54
2019-04-20T00:29:45.331Z,77.61
2019-04-20T00:30:28.762Z,77.62
2019-04-20T00:31:05.541Z,77.63
2019-04-20T00:31:43.054Z,77.61
2019-04-20T00:32:18.866Z,77.58
2019-04-20T00:32:58.538Z,77.47
2019-04-20T00:33:40.985Z,77.00
2019-04-20T00:34:18.348Z,76.51
2019-04-20T00:34:50.658Z,76.21
2019-04-20T00:35:29.332Z,76.32
2019-04-20T00:36:08.964Z,76.44
2019-04-20T00:36:47.455Z,76.53
2019-04-20T00:37:25.482Z,76.54
2019-04-20T00:38:05.649Z,76.42
2019-04-20T00:38:50.889Z,76.35
2019-04-20T00:39:23.795Z,76.19
2019-04-20T00:40:01.856Z,76.05
2019-04-20T00:40:39.783Z,75.73
2019-04-20T00:41:19.428Z,75.36
2019-04-20T00:42:03.569Z,74.93
2019-04-20T00:42:45.202Z,74.47
2019-04-20T00:43:21.045Z,73.97
2019-04-20T00:44:06.901Z,73.65
2019-04-20T00:44:45.484Z,73.37
2019-04-20T00:45:27.470Z,72.91
2019-04-20T00:46:08.780Z,72.73
2019-04-20T00:46:58.759Z,72.10
2019-04-20T00:47:38.428Z,71.64
2019-04-20T00:48:19.152Z,71.10
2019-04-20T00:48:57.237Z,70.65
2019-04-20T00:49:45.904Z,70.57
2019-04-20T00:50:28.284Z,70.46
2019-04-20T00:51:06.935Z,70.13
2019-04-20T00:51:50.772Z,69.91
2019-04-20T00:52:42.072Z,69.74
2019-04-20T00:53:06.833Z,69.58
2019-04-20T00:53:39.717Z,69.23
2019-04-20T00:54:16.015Z,68.67
2019-04-20T00:54:53.985Z,68.08
2019-04-20T00:55:36.071Z,67.79
2019-04-20T00:56:14.167Z,67.63
2019-04-20T00:57:05.755Z,67.15
2019-04-20T00:57:41.781Z,66.88
2019-04-20T00:58:20.082Z,66.73
2019-04-20T00:59:06.153Z,66.65
2019-04-20T00:59:51.872Z,66.66
2019-04-20T01:00:27.332Z,66.57
2019-04-20T01:01:17.129Z,66.42
2019-04-20T01:01:51.947Z,66.27
2019-04-20T01:02:26.168Z,66.06
2019-04-20T01:03:10.687Z,65.93
2019-04-20T01:03:48.649Z,65.91
2019-04-20T01:04:34.585Z,65.88
2019-04-20T01:05:10.975Z,65.85
2019-04-20T01:06:11.081Z,65.63
2019-04-20T01:07:01.645Z,65.24
2019-04-20T01:07:52.049Z,64.87
2019-04-20T01:08:44.609Z,64.54
2019-04-20T01:09:43.752Z,64.30
2019-04-20T01:10:23.749Z,64.09
2019-04-20T01:11:02.651Z,63.84
2019-04-20T01:11:45.477Z,63.71
2019-04-20T01:12:28.020Z,63.48
2019-04-20T01:13:11.069Z,63.14
2019-04-20T01:13:52.037Z,63.01
2019-04-20T01:14:36.294Z,62.76
2019-04-20T01:15:16.655Z,62.68
2019-04-20T01:15:57.356Z,62.50
2019-04-20T01:16:45.211Z,62.30
2019-04-20T01:17:15.777Z,62.16
2019-04-20T01:17:53.756Z,62.13
2019-04-20T01:18:31.753Z,62.12
2019-04-20T01:19:10.856Z,61.86
2019-04-20T01:19:52.603Z,61.40
2019-04-20T01:20:29.694Z,61.06
2019-04-20T01:21:14.052Z,60.92
2019-04-20T01:21:58.197Z,60.86
2019-04-20T01:22:40.283Z,60.53
2019-04-20T01:23:17.192Z,60.25
2019-04-20T01:23:58.578Z,60.04
2019-04-20T01:24:39.882Z,59.88
2019-04-20T01:25:22.129Z,59.60
2019-04-20T01:26:01.179Z,59.57
2019-04-20T01:26:41.900Z,59.54
2019-04-20T01:27:29.882Z,59.58
2019-04-20T01:28:28.772Z,59.58
2019-04-20T01:28:46.377Z,59.46
2019-04-20T01:29:26.355Z,59.12
2019-04-20T01:30:07.485Z,59.01
2019-04-20T01:30:43.149Z,58.94
2019-04-20T01:31:27.282Z,58.68
2019-04-20T01:32:10.558Z,58.54
2019-04-20T01:32:57.606Z,58.46
2019-04-20T01:33:34.305Z,58.25
2019-04-20T01:34:06.179Z,58.08
2019-04-20T01:34:45.913Z,58.01
2019-04-20T01:35:35.538Z,57.94
2019-04-20T01:36:19.582Z,57.75
2019-04-20T01:36:55.702Z,57.65
2019-04-20T01:37:35.440Z,57.36
2019-04-20T01:38:16.626Z,57.16
2019-04-20T01:38:56.414Z,56.96
2019-04-20T01:39:28.485Z,56.73
2019-04-20T01:40:04.536Z,56.43
2019-04-20T01:40:42.129Z,56.22
2019-04-20T01:41:22.401Z,56.27
2019-04-20T01:42:02.388Z,56.11
2019-04-20T01:42:40.407Z,56.09
2019-04-20T01:43:18.503Z,56.30
2019-04-20T01:43:56.409Z,56.62
2019-04-20T01:44:41.237Z,56.96
2019-04-20T01:45:21.445Z,56.89
2019-04-20T01:46:03.301Z,56.64
2019-04-20T01:46:39.190Z,56.65
2019-04-20T01:47:19.073Z,56.90
2019-04-20T01:47:59.459Z,57.11
2019-04-20T01:48:39.951Z,56.85
2019-04-20T01:49:23.858Z,56.71
2019-04-20T01:50:08.483Z,56.61
2019-04-20T01:50:49.963Z,56.54
2019-04-20T01:51:27.155Z,56.65
2019-04-20T01:52:10.953Z,56.62
2019-04-20T01:52:56.525Z,56.53
2019-04-20T01:53:44.228Z,56.11
2019-04-20T01:54:27.588Z,55.61
2019-04-20T01:55:28.887Z,55.11
2019-04-20T01:56:08.303Z,55.08
2019-04-20T01:56:43.430Z,54.89
2019-04-20T01:57:32.965Z,54.51
2019-04-20T01:58:35.195Z,54.45
2019-04-20T01:59:33.433Z,54.63
2019-04-20T02:00:35.216Z,54.50
2019-04-20T02:01:42.448Z,54.52
2019-04-20T02:02:50.332Z,54.79
2019-04-20T02:04:06.791Z,54.74
2019-04-20T02:04:52.083Z,54.35
2019-04-20T02:05:32.711Z,54.36
2019-04-20T02:06:12.985Z,54.27
2019-04-20T02:06:53.938Z,54.19
2019-04-20T02:07:36.715Z,54.15
2019-04-20T02:08:14.656Z,53.96
2019-04-20T02:08:58.232Z,53.99
2019-04-20T02:09:34.489Z,54.05
2019-04-20T02:10:15.127Z,53.87
2019-04-20T02:10:57.431Z,53.76
2019-04-20T02:11:38.394Z,53.70
2019-04-20T02:12:19.098Z,53.44
2019-04-20T02:12:59.812Z,53.28
2019-04-20T02:13:44.453Z,53.13
2019-04-20T02:14:30.672Z,53.07
2019-04-20T02:15:04.315Z,52.98
2019-04-20T02:15:45.114Z,52.98
2019-04-20T02:16:28.827Z,52.95
2019-04-20T02:17:11.722Z,53.05
2019-04-20T02:17:46.605Z,53.22
2019-04-20T02:18:35.089Z,53.19
2019-04-20T02:19:13.886Z,52.92
2019-04-20T02:19:59.843Z,52.87
2019-04-20T02:20:41.789Z,52.72
2019-04-20T02:21:21.560Z,52.39
2019-04-20T02:21:55.696Z,52.26
2019-04-20T02:22:42.164Z,52.05
2019-04-20T02:23:14.548Z,52.11
2019-04-20T02:23:49.973Z,51.75
2019-04-20T02:24:23.733Z,51.44
2019-04-20T02:25:05.829Z,51.21
2019-04-20T02:25:44.015Z,51.27
2019-04-20T02:26:21.884Z,51.27
2019-04-20T02:26:59.948Z,51.17
2019-04-20T02:27:45.403Z,51.20
2019-04-20T02:28:38.273Z,51.21
2019-04-20T02:29:37.559Z,51.06
2019-04-20T02:29:58.274Z,51.14
2019-04-20T02:31:45.265Z,51.32
2019-04-20T02:32:17.197Z,51.15
2019-04-20T02:32:55.629Z,51.24
2019-04-20T02:33:47.422Z,51.16
2019-04-20T02:34:24.088Z,51.19
2019-04-20T02:35:14.150Z,51.17
2019-04-20T02:36:29.982Z,50.77
2019-04-20T02:36:59.687Z,50.68
2019-04-20T02:37:56.745Z,51.02
2019-04-20T02:39:37.598Z,50.79
2019-04-20T02:40:19.375Z,50.70
2019-04-20T02:41:37.663Z,50.46
2019-04-20T02:43:03.695Z,50.26
2019-04-20T02:43:46.825Z,50.16
2019-04-20T02:44:27.919Z,50.18
2019-04-20T02:45:00.836Z,50.19
2019-04-20T02:46:07.117Z,50.30
2019-04-20T02:47:43.620Z,50.59
2019-04-20T02:48:08.104Z,50.66
2019-04-20T02:49:06.058Z,50.35
2019-04-20T02:49:36.005Z,50.28
2019-04-20T02:50:59.699Z,50.43
2019-04-20T02:52:13.485Z,50.69
2019-04-20T02:52:55.947Z,50.58
2019-04-20T02:53:41.194Z,50.57
2019-04-20T02:55:01.759Z,50.69
2019-04-20T02:58:15.279Z,50.48
2019-04-20T02:59:14.761Z,50.48
2019-04-20T03:00:12.411Z,50.51
2019-04-20T03:00:52.612Z,49.88
2019-04-20T03:01:51.849Z,49.30
2019-04-20T03:02:18.182Z,48.80
2019-04-20T03:02:56.106Z,48.91
2019-04-20T03:03:32.777Z,48.79
2019-04-20T03:04:16.269Z,48.77
2019-04-20T03:05:00.065Z,48.81
2019-04-20T03:05:40.632Z,49.11
2019-04-20T03:06:19.587Z,48.76
2019-04-20T03:07:04.152Z,48.56
2019-04-20T03:07:50.402Z,48.54
2019-04-20T03:08:26.241Z,48.72
2019-04-20T03:09:09.160Z,48.89
2019-04-20T03:09:44.258Z,49.03
2019-04-20T03:10:34.226Z,49.28
2019-04-20T03:11:17.765Z,49.57
2019-04-20T03:12:00.945Z,49.25
2019-04-20T03:12:34.461Z,48.97
2019-04-20T03:13:14.405Z,48.57
2019-04-20T03:13:55.642Z,48.13
2019-04-20T03:14:31.939Z,48.05
2019-04-20T03:15:09.583Z,48.17
2019-04-20T03:15:57.506Z,48.18
2019-04-20T03:16:33.130Z,47.94
2019-04-20T03:17:21.367Z,47.81
2019-04-20T03:17:58.879Z,47.95
2019-04-20T03:18:37.307Z,48.07
2019-04-20T03:19:14.125Z,48.13
2019-04-20T03:19:52.492Z,47.95
2019-04-20T03:20:43.378Z,46.75
2019-04-20T03:21:26.973Z,46.16
2019-04-20T03:22:04.076Z,46.28
2019-04-20T03:23:07.353Z,46.51
2019-04-20T03:23:31.037Z,46.56
2019-04-20T03:24:14.401Z,45.73
2019-04-20T03:24:48.565Z,45.86
2019-04-20T03:25:45.493Z,45.82
2019-04-20T03:26:29.792Z,45.78
2019-04-20T03:27:29.478Z,45.92
2019-04-20T03:28:15.424Z,45.94
2019-04-20T03:28:56.635Z,45.98
2019-04-20T03:30:43.947Z,45.86
2019-04-20T03:31:29.472Z,45.64
2019-04-20T03:33:34.541Z,45.49
2019-04-20T03:35:22.619Z,45.63
2019-04-20T03:36:11.894Z,45.50
2019-04-20T03:36:49.753Z,45.20
2019-04-20T03:37:28.021Z,45.37
2019-04-20T03:38:00.082Z,45.38
2019-04-20T03:38:38.375Z,45.58
2019-04-20T03:39:18.001Z,46.48
2019-04-20T03:39:55.211Z,46.69
2019-04-20T03:40:36.514Z,47.51
2019-04-20T03:41:13.981Z,47.52
2019-04-20T03:41:48.509Z,47.08
2019-04-20T03:42:24.445Z,47.13
2019-04-20T03:43:05.542Z,47.29
2019-04-20T03:43:45.733Z,46.72
2019-04-20T03:44:27.851Z,46.36
2019-04-20T03:45:09.729Z,46.40
2019-04-20T03:45:52.664Z,46.22
2019-04-20T03:46:31.021Z,46.45
2019-04-20T03:47:08.871Z,46.62
2019-04-20T03:47:58.782Z,46.64
2019-04-20T03:48:41.309Z,46.74
2019-04-20T03:49:27.898Z,46.85
2019-04-20T03:50:07.893Z,46.77
2019-04-20T03:50:46.676Z,46.27
2019-04-20T03:51:37.112Z,45.87
2019-04-20T03:52:26.188Z,46.30
2019-04-20T03:53:13.048Z,46.50
2019-04-20T03:54:06.860Z,46.03
2019-04-20T03:54:54.359Z,45.95
2019-04-20T03:55:56.672Z,46.21
2019-04-20T03:56:49.240Z,46.54
2019-04-20T03:57:38.257Z,46.71
2019-04-20T03:58:35.963Z,46.67
2019-04-20T03:59:36.043Z,46.95
2019-04-20T04:00:37.582Z,45.70
2019-04-20T04:02:02.140Z,45.29
2019-04-20T04:02:37.522Z,45.34
2019-04-20T04:03:34.936Z,45.88
2019-04-20T04:04:21.492Z,45.97
2019-04-20T04:05:07.268Z,44.99
2019-04-20T04:06:08.342Z,44.92
2019-04-20T04:06:40.664Z,45.02
2019-04-20T04:07:24.861Z,44.91
2019-04-20T04:08:09.443Z,45.14
2019-04-20T04:08:42.731Z,45.17
2019-04-20T04:09:25.778Z,44.98
2019-04-20T04:10:11.001Z,44.74
2019-04-20T04:10:55.138Z,44.87
2019-04-20T04:11:36.582Z,44.72
2019-04-20T04:12:25.421Z,44.63
2019-04-20T04:13:16.997Z,44.63
2019-04-20T04:13:56.576Z,44.01
2019-04-20T04:14:36.739Z,43.42
2019-04-20T04:15:16.890Z,42.81
2019-04-20T04:16:01.146Z,42.44
2019-04-20T04:16:42.959Z,42.25
2019-04-20T04:17:22.423Z,42.34
2019-04-20T04:17:57.943Z,42.59
2019-04-20T04:18:40.995Z,42.87
2019-04-20T04:19:23.115Z,42.70
2019-04-20T04:20:05.042Z,42.59
2019-04-20T04:20:46.702Z,42.52
2019-04-20T04:21:35.082Z,42.65
2019-04-20T04:22:12.274Z,43.00
2019-04-20T04:23:00.179Z,43.17
2019-04-20T04:23:36.594Z,43.07
2019-04-20T04:24:14.278Z,42.98
2019-04-20T04:24:54.283Z,42.60
2019-04-20T04:25:29.694Z,42.67
2019-04-20T04:26:16.089Z,42.88
2019-04-20T04:26:56.074Z,42.59
2019-04-20T04:27:40.423Z,42.32
2019-04-20T04:28:22.581Z,42.18
2019-04-20T04:29:00.774Z,42.49
2019-04-20T04:29:43.054Z,42.52
2019-04-20T04:30:18.276Z,42.70
2019-04-20T04:31:04.132Z,42.79
2019-04-20T04:31:45.600Z,42.31
2019-04-20T04:32:29.026Z,42.01
2019-04-20T04:33:32.721Z,42.26
2019-04-20T04:33:55.853Z,42.35
2019-04-20T04:34:22.870Z,42.58
2019-04-20T04:35:03.347Z,42.27
2019-04-20T04:35:50.244Z,42.28
2019-04-20T04:36:25.992Z,42.38
2019-04-20T04:37:10.702Z,42.64
2019-04-20T04:37:50.298Z,42.42
2019-04-20T04:38:35.530Z,41.95
2019-04-20T04:39:19.651Z,41.70
2019-04-20T04:39:56.329Z,42.15
2019-04-20T04:40:42.275Z,42.18
2019-04-20T04:41:20.337Z,41.61
2019-04-20T04:42:07.467Z,41.77
2019-04-20T04:42:42.266Z,42.12
2019-04-20T04:43:21.145Z,42.27
2019-04-20T04:43:58.835Z,42.48
2019-04-20T04:44:35.437Z,42.79
2019-04-20T04:45:06.230Z,42.59
2019-04-20T04:45:41.011Z,42.27
2019-04-20T04:46:18.876Z,41.92
2019-04-20T04:47:02.685Z,41.81
2019-04-20T04:47:41.379Z,41.88
2019-04-20T04:48:31.511Z,41.38
2019-04-20T04:49:09.593Z,41.23
2019-04-20T04:49:48.453Z,41.38
2019-04-20T04:50:27.855Z,41.34
2019-04-20T04:51:11.961Z,41.40
2019-04-20T04:51:55.264Z,41.60
2019-04-20T04:52:38.292Z,42.23
2019-04-20T04:53:20.648Z,42.54
2019-04-20T04:53:57.962Z,42.31
2019-04-20T04:54:37.560Z,42.15
2019-04-20T04:55:22.245Z,42.24
2019-04-20T04:55:54.625Z,42.19
2019-04-20T04:56:28.677Z,41.73
2019-04-20T04:57:09.478Z,41.38
2019-04-20T04:57:51.587Z,41.18
2019-04-20T04:58:29.902Z,41.40
2019-04-20T04:59:10.706Z,41.51
2019-04-20T04:59:51.471Z,41.76
2019-04-20T05:00:32.580Z,41.44
2019-04-20T05:01:16.710Z,41.68
2019-04-20T05:01:54.792Z,41.58
2019-04-20T05:02:40.447Z,41.65
2019-04-20T05:03:27.644Z,41.72
2019-04-20T05:04:23.272Z,41.72
2019-04-20T05:05:19.376Z,41.69
2019-04-20T05:06:06.465Z,41.84
2019-04-20T05:06:41.436Z,42.38
2019-04-20T05:07:20.088Z,42.43
2019-04-20T05:08:00.446Z,42.49
2019-04-20T05:08:36.840Z,42.33
2019-04-20T05:09:14.847Z,42.07
2019-04-20T05:09:50.692Z,42.48
2019-04-20T05:10:30.777Z,42.54
2019-04-20T05:11:11.034Z,42.41
2019-04-20T05:11:59.692Z,42.25
2019-04-20T05:12:34.138Z,42.29
2019-04-20T05:13:13.698Z,42.18
2019-04-20T05:13:58.480Z,42.09
2019-04-20T05:14:45.329Z,42.03
2019-04-20T05:15:24.450Z,40.95
2019-04-20T05:16:06.302Z,41.00
2019-04-20T05:16:49.991Z,41.34
2019-04-20T05:17:34.123Z,41.35
2019-04-20T05:18:16.182Z,41.35
2019-04-20T05:19:11.551Z,41.50
2019-04-20T05:19:29.871Z,41.89
2019-04-20T05:20:09.260Z,42.16
2019-04-20T05:20:54.709Z,42.50
2019-04-20T05:21:49.993Z,43.00
2019-04-20T05:22:26.186Z,42.69
2019-04-20T05:23:08.812Z,42.88
2019-04-20T05:23:55.406Z,43.24
2019-04-20T05:24:38.998Z,42.97
2019-04-20T05:25:50.904Z,43.10
2019-04-20T05:26:39.773Z,43.36
2019-04-20T05:27:36.408Z,43.70
2019-04-20T05:28:13.079Z,43.43
2019-04-20T05:28:48.580Z,43.81
2019-04-20T05:29:25.443Z,43.74
2019-04-20T05:30:01.569Z,43.47
2019-04-20T05:30:46.906Z,43.38
2019-04-20T05:31:24.497Z,43.48
2019-04-20T05:32:07.946Z,43.46
2019-04-20T05:32:52.430Z,43.45
2019-04-20T05:33:27.783Z,43.48
2019-04-20T05:34:25.557Z,43.29
2019-04-20T05:35:07.388Z,43.37
2019-04-20T05:35:43.422Z,43.58
2019-04-20T05:36:24.255Z,43.51
2019-04-20T05:37:03.697Z,43.92
2019-04-20T05:37:48.671Z,44.22
2019-04-20T05:38:34.255Z,44.09
2019-04-20T05:39:17.269Z,43.94
2019-04-20T05:39:50.652Z,43.85
2019-04-20T05:40:35.290Z,43.91
2019-04-20T05:41:07.075Z,44.21
2019-04-20T05:41:50.397Z,45.07
2019-04-20T05:42:32.489Z,44.72
2019-04-20T05:43:31.696Z,44.72
2019-04-20T05:44:16.804Z,44.88
2019-04-20T05:45:01.872Z,45.15
2019-04-20T05:45:38.882Z,44.53
2019-04-20T05:46:26.678Z,44.35
2019-04-20T05:47:06.892Z,44.10
2019-04-20T05:47:43.057Z,43.98
2019-04-20T05:48:23.578Z,43.98
2019-04-20T05:49:13.797Z,44.09
2019-04-20T05:49:45.640Z,43.43
2019-04-20T05:50:30.272Z,43.23
2019-04-20T05:51:15.319Z,43.15
2019-04-20T05:51:56.027Z,43.72
2019-04-20T05:52:45.583Z,42.79
2019-04-20T05:53:14.436Z,42.78
2019-04-20T05:53:50.073Z,42.63
2019-04-20T05:54:37.615Z,43.48
2019-04-20T05:55:16.181Z,43.41
2019-04-20T05:55:51.559Z,43.16
2019-04-20T05:56:35.733Z,43.18
2019-04-20T05:57:23.707Z,43.30
2019-04-20T05:58:05.015Z,43.45
2019-04-20T05:58:33.028Z,43.41
2019-04-20T05:59:14.998Z,43.16
2019-04-20T06:00:05.259Z,43.01
2019-04-20T06:00:43.523Z,42.69
2019-04-20T06:01:20.198Z,42.67
2019-04-20T06:01:58.240Z,42.79
2019-04-20T06:02:37.727Z,42.74
2019-04-20T06:03:15.363Z,42.54
2019-04-20T06:03:55.381Z,42.58
2019-04-20T06:04:51.583Z,42.45
2019-04-20T06:05:25.293Z,42.22
2019-04-20T06:06:03.434Z,42.05
2019-04-20T06:06:38.956Z,42.21
2019-04-20T06:07:21.448Z,42.02
2019-04-20T06:08:01.701Z,42.17
2019-04-20T06:08:45.215Z,42.28
2019-04-20T06:09:22.790Z,42.18
2019-04-20T06:10:09.862Z,42.19
2019-04-20T06:10:38.438Z,41.99
2019-04-20T06:11:24.139Z,41.95
2019-04-20T06:12:15.724Z,41.73
2019-04-20T06:12:40.291Z,41.65
2019-04-20T06:13:38.284Z,41.68
2019-04-20T06:14:39.424Z,42.18
2019-04-20T06:15:42.079Z,42.85
2019-04-20T06:16:14.186Z,42.84
2019-04-20T06:17:21.161Z,43.11
2019-04-20T06:18:02.817Z,42.94
2019-04-20T06:18:51.802Z,43.02
2019-04-20T06:19:48.854Z,43.56
2019-04-20T06:20:11.331Z,43.55
2019-04-20T06:21:00.412Z,43.25
2019-04-20T06:21:57.469Z,43.12
2019-04-20T06:22:45.717Z,43.19
2019-04-20T06:23:54.870Z,43.02
2019-04-20T06:24:39.939Z,43.06
2019-04-20T06:25:34.785Z,43.58
2019-04-20T06:26:49.008Z,43.79
2019-04-20T06:27:28.239Z,43.67
2019-04-20T06:28:02.627Z,43.30
2019-04-20T06:28:40.609Z,43.11
2019-04-20T06:29:22.145Z,42.75
2019-04-20T06:30:08.656Z,42.68
2019-04-20T06:30:41.688Z,43.14
2019-04-20T06:31:30.138Z,43.08
2019-04-20T06:32:17.349Z,43.38
2019-04-20T06:33:31.324Z,43.02
2019-04-20T06:34:39.233Z,42.89
2019-04-20T06:35:30.398Z,42.86
2019-04-20T06:36:15.046Z,42.52
2019-04-20T06:36:38.107Z,42.04
2019-04-20T06:37:14.027Z,42.13
2019-04-20T06:38:03.185Z,42.11
2019-04-20T06:39:20.038Z,42.46
2019-04-20T06:40:07.850Z,42.73
2019-04-20T06:40:55.680Z,42.46
2019-04-20T06:41:37.976Z,42.26
2019-04-20T06:42:13.987Z,41.82
2019-04-20T06:42:35.693Z,41.49
2019-04-20T06:43:20.854Z,41.25
2019-04-20T06:44:02.678Z,41.08
2019-04-20T06:44:48.446Z,41.03
2019-04-20T06:45:28.218Z,40.88
2019-04-20T06:46:07.050Z,40.11
2019-04-20T06:46:47.294Z,40.52
2019-04-20T06:47:22.179Z,40.78
2019-04-20T06:47:57.892Z,41.12
2019-04-20T06:49:29.211Z,41.21
2019-04-20T06:50:03.470Z,40.67
2019-04-20T06:50:38.737Z,40.82
2019-04-20T06:51:22.234Z,40.40
2019-04-20T06:52:25.588Z,40.41
2019-04-20T06:53:32.113Z,40.46
2019-04-20T06:53:57.608Z,40.78
2019-04-20T06:55:08.453Z,41.10
2019-04-20T06:56:09.895Z,41.03
2019-04-20T06:56:38.022Z,41.23
2019-04-20T06:57:50.282Z,41.50
2019-04-20T06:59:21.093Z,41.68
2019-04-20T06:59:55.055Z,41.83
2019-04-20T07:00:34.700Z,42.12
2019-04-20T07:01:23.474Z,42.28
2019-04-20T07:02:02.919Z,42.20
2019-04-20T07:02:41.212Z,41.71
2019-04-20T07:03:37.636Z,41.49
2019-04-20T07:04:26.982Z,41.82
2019-04-20T07:04:57.574Z,41.66
2019-04-20T07:05:22.126Z,41.44
2019-04-20T07:06:26.738Z,41.64
2019-04-20T07:06:51.890Z,41.79
2019-04-20T07:07:27.698Z,41.73
2019-04-20T07:08:17.434Z,41.17
2019-04-20T07:08:56.942Z,41.35
2019-04-20T07:09:35.311Z,41.04
2019-04-20T07:10:13.290Z,41.03
2019-04-20T07:10:56.406Z,41.40
2019-04-20T07:11:29.368Z,42.14
2019-04-20T07:12:12.578Z,42.59
2019-04-20T07:12:45.091Z,42.81
2019-04-20T07:13:22.111Z,42.97
2019-04-20T07:13:59.352Z,42.79
2019-04-20T07:14:45.430Z,42.11
2019-04-20T07:15:29.051Z,42.41
2019-04-20T07:16:28.882Z,42.88
2019-04-20T07:17:39.256Z,42.63
2019-04-20T07:18:15.718Z,42.59
2019-04-20T07:19:09.464Z,42.98
2019-04-20T07:19:55.913Z,42.83
2019-04-20T07:21:05.833Z,42.93
2019-04-20T07:22:05.850Z,43.05
2019-04-20T07:22:49.269Z,43.08
2019-04-20T07:23:31.427Z,42.72
2019-04-20T07:24:14.197Z,42.29
2019-04-20T07:24:56.797Z,42.11
2019-04-20T07:25:33.243Z,42.01
2019-04-20T07:26:16.998Z,42.00
2019-04-20T07:26:49.264Z,41.98
2019-04-20T07:27:29.506Z,41.90
2019-04-20T07:28:12.526Z,41.83
2019-04-20T07:28:53.601Z,42.19
2019-04-20T07:29:34.073Z,42.22
2019-04-20T07:30:12.087Z,42.37
2019-04-20T07:30:56.902Z,42.44
2019-04-20T07:31:29.639Z,42.65
2019-04-20T07:32:10.657Z,42.57
2019-04-20T07:32:57.959Z,42.42
2019-04-20T07:33:40.166Z,42.59
2019-04-20T07:34:20.531Z,42.35
2019-04-20T07:35:03.751Z,42.15
2019-04-20T07:35:40.154Z,42.38
2019-04-20T07:36:24.372Z,42.62
2019-04-20T07:37:29.913Z,42.38
2019-04-20T07:38:08.871Z,42.07
2019-04-20T07:38:34.314Z,41.98
2019-04-20T07:39:14.213Z,42.53
2019-04-20T07:39:53.854Z,42.83
2019-04-20T07:40:32.546Z,42.87
2019-04-20T07:41:17.555Z,42.74
2019-04-20T07:41:56.948Z,42.69
2019-04-20T07:42:45.083Z,42.93
2019-04-20T07:43:09.187Z,43.05
2019-04-20T07:44:04.645Z,42.98
2019-04-20T07:44:44.262Z,42.78
2019-04-20T07:45:24.501Z,42.85
2019-04-20T07:45:56.882Z,42.30
2019-04-20T07:46:47.247Z,42.54
2019-04-20T07:47:27.602Z,43.26
2019-04-20T07:48:01.683Z,43.50
2019-04-20T07:48:36.910Z,43.71
2019-04-20T07:49:18.379Z,44.13
2019-04-20T07:49:55.601Z,44.01
2019-04-20T07:50:35.178Z,43.71
2019-04-20T07:51:10.310Z,43.43
2019-04-20T07:51:44.371Z,43.30
2019-04-20T07:52:33.911Z,43.53
2019-04-20T07:53:18.581Z,43.76
2019-04-20T07:54:10.678Z,43.94
2019-04-20T07:54:46.934Z,43.99
2019-04-20T07:56:17.785Z,44.43
2019-04-20T07:56:42.464Z,44.78
2019-04-20T07:57:19.445Z,44.70
2019-04-20T07:57:53.677Z,45.13
2019-04-20T07:58:31.677Z,44.80
2019-04-20T07:59:13.968Z,45.08
2019-04-20T08:00:00.359Z,45.07
2019-04-20T08:00:55.060Z,45.47
2019-04-20T08:01:47.917Z,45.20
2019-04-20T08:02:42.636Z,45.05
2019-04-20T08:03:33.574Z,45.20
2019-04-20T08:04:18.614Z,45.34
2019-04-20T08:05:06.013Z,45.17
2019-04-20T08:05:44.278Z,45.21
2019-04-20T08:06:35.352Z,44.57
2019-04-20T08:07:09.561Z,44.55
2019-04-20T08:07:57.248Z,44.98
2019-04-20T08:08:43.800Z,45.15
2019-04-20T08:09:22.004Z,45.28
2019-04-20T08:09:57.361Z,45.28
2019-04-20T08:10:51.077Z,45.61
2019-04-20T08:11:32.099Z,45.48
2019-04-20T08:12:18.580Z,45.33
2019-04-20T08:13:02.324Z,45.32
2019-04-20T08:13:45.591Z,45.67
2019-04-20T08:14:28.577Z,45.59
2019-04-20T08:15:03.793Z,45.62
2019-04-20T08:15:58.367Z,45.79
2019-04-20T08:16:29.642Z,45.49
2019-04-20T08:17:14.418Z,45.91
2019-04-20T08:17:50.956Z,46.25
2019-04-20T08:18:27.744Z,46.06
2019-04-20T08:19:19.942Z,45.66
2019-04-20T08:19:45.681Z,45.23
2019-04-20T08:20:21.752Z,45.16
2019-04-20T08:21:02.746Z,45.18
2019-04-20T08:21:48.560Z,45.22
2019-04-20T08:22:26.767Z,45.26
2019-04-20T08:23:05.115Z,45.16
2019-04-20T08:23:44.220Z,44.86
2019-04-20T08:24:21.553Z,44.80
2019-04-20T08:25:02.007Z,44.76
2019-04-20T08:25:38.819Z,44.77
2019-04-20T08:26:13.983Z,44.79
2019-04-20T08:26:53.061Z,44.78
2019-04-20T08:27:46.650Z,45.03
2019-04-20T08:28:42.320Z,45.10
2019-04-20T08:29:36.635Z,45.15
2019-04-20T08:30:23.028Z,45.17
2019-04-20T08:31:17.903Z,45.32
2019-04-20T08:32:13.023Z,45.71
2019-04-20T08:32:58.570Z,45.83
2019-04-20T08:34:04.428Z,45.87
2019-04-20T08:34:39.230Z,46.06
2019-04-20T08:35:23.158Z,46.70
2019-04-20T08:35:58.456Z,46.67
2019-04-20T08:36:39.158Z,46.68
2019-04-20T08:37:11.988Z,46.72
2019-04-20T08:38:14.577Z,46.78
2019-04-20T08:39:00.191Z,46.92
2019-04-20T08:40:01.426Z,46.58
2019-04-20T08:40:37.298Z,46.56
2019-04-20T08:41:19.407Z,46.99
2019-04-20T08:42:00.205Z,47.32
2019-04-20T08:42:51.144Z,47.52
2019-04-20T08:43:32.686Z,47.24
2019-04-20T08:44:04.752Z,47.51
2019-04-20T08:44:58.554Z,47.74
2019-04-20T08:45:23.627Z,47.98
2019-04-20T08:46:00.554Z,48.36
2019-04-20T08:46:53.506Z,48.40
2019-04-20T08:47:32.291Z,48.71
2019-04-20T08:48:11.110Z,49.32
2019-04-20T08:48:46.919Z,49.86
2019-04-20T08:49:29.674Z,50.22
2019-04-20T08:50:22.467Z,50.46
2019-04-20T08:51:03.391Z,50.58
2019-04-20T08:51:49.997Z,50.72
2019-04-20T08:52:46.894Z,50.64
2019-04-20T08:53:42.088Z,50.83
2019-04-20T08:54:21.983Z,51.13
2019-04-20T08:55:07.725Z,51.34
2019-04-20T08:55:44.160Z,51.20
2019-04-20T08:56:18.514Z,51.21
2019-04-20T08:56:53.636Z,51.66
2019-04-20T08:57:27.213Z,51.64
2019-04-20T08:58:09.274Z,51.92
2019-04-20T08:58:48.341Z,52.03
2019-04-20T08:59:26.677Z,51.96
2019-04-20T09:00:06.858Z,51.75
2019-04-20T09:00:50.157Z,51.96
2019-04-20T09:01:29.084Z,52.37
2019-04-20T09:02:10.309Z,52.36
2019-04-20T09:02:48.919Z,52.48
2019-04-20T09:03:32.633Z,52.63
2019-04-20T09:04:15.404Z,52.74
2019-04-20T09:04:58.253Z,51.96
2019-04-20T09:05:42.424Z,52.03
2019-04-20T09:06:26.318Z,52.11
2019-04-20T09:07:04.050Z,52.17
2019-04-20T09:07:46.929Z,52.11
2019-04-20T09:08:23.568Z,52.27
2019-04-20T09:09:11.799Z,52.00
2019-04-20T09:09:56.379Z,52.19
2019-04-20T09:10:40.810Z,52.60
2019-04-20T09:11:12.430Z,52.73
2019-04-20T09:11:54.275Z,52.72
2019-04-20T09:12:36.853Z,52.81
2019-04-20T09:13:08.358Z,53.04
2019-04-20T09:13:43.221Z,52.98
2019-04-20T09:14:23.526Z,53.20
2019-04-20T09:15:06.020Z,53.25
2019-04-20T09:15:44.708Z,52.84
2019-04-20T09:16:31.814Z,53.00
2019-04-20T09:17:23.049Z,52.95
2019-04-20T09:18:20.805Z,53.25
2019-04-20T09:18:56.444Z,53.14
2019-04-20T09:19:41.750Z,52.85
2019-04-20T09:20:27.009Z,52.75
2019-04-20T09:21:01.129Z,52.85
2019-04-20T09:21:46.166Z,52.22
2019-04-20T09:22:44.402Z,52.33
2019-04-20T09:23:35.398Z,52.77
2019-04-20T09:24:19.747Z,52.29
2019-04-20T09:25:01.850Z,52.20
2019-04-20T09:26:16.305Z,51.79